createdAt,value
2019-02-07T00:01:34.591Z,8.63
2019-02-07T00:04:06.212Z,6.93
2019-02-07T00:06:56.046Z,8.80
2019-02-07T00:09:24.078Z,5.83
2019-02-07T00:11:51.778Z,7.27
2019-02-07T00:14:19.464Z,7.30
2019-02-07T00:16:59.536Z,7.67
2019-02-07T00:19:27.148Z,6.90
2019-02-07T00:21:54.836Z,7.03
2019-02-07T00:24:24.404Z,6.17
2019-02-07T00:27:07.474Z,7.80
2019-02-07T00:29:38.919Z,6.93
2019-02-07T00:32:11.638Z,7.03
2019-02-07T00:34:40.632Z,5.63
2019-02-07T00:37:28.126Z,5.80
2019-02-07T00:39:56.083Z,5.20
2019-02-07T00:42:23.908Z,5.37
2019-02-07T00:44:54.188Z,5.80
2019-02-07T00:47:37.463Z,5.70
2019-02-07T00:50:07.049Z,5.93
2019-02-07T00:52:36.468Z,4.97
2019-02-07T00:55:05.067Z,6.83
2019-02-07T00:57:39.900Z,6.23
2019-02-07T01:00:11.985Z,6.87
2019-02-07T01:02:39.591Z,5.97
2019-02-07T01:05:08.456Z,5.67
2019-02-07T01:07:36.034Z,5.47
2019-02-07T01:10:11.948Z,4.93
2019-02-07T01:12:43.343Z,5.83
2019-02-07T01:15:17.593Z,6.67
2019-02-07T01:17:57.315Z,6.97
2019-02-07T01:20:49.485Z,5.90
2019-02-07T01:23:19.886Z,5.63
2019-02-07T01:25:54.212Z,4.83
2019-02-07T01:28:22.058Z,4.83
2019-02-07T01:30:49.929Z,4.87
2019-02-07T01:33:18.089Z,5.30
2019-02-07T01:35:49.967Z,4.63
2019-02-07T01:39:16.615Z,5.10
2019-02-07T01:41:44.395Z,5.20
2019-02-07T01:44:11.933Z,4.37
2019-02-07T01:46:55.665Z,4.43
2019-02-07T01:49:31.598Z,4.80
2019-02-07T01:52:01.689Z,5.13
2019-02-07T01:54:29.274Z,4.90
2019-02-07T01:57:05.059Z,5.47
2019-02-07T01:59:34.359Z,4.97
2019-02-07T02:02:02.577Z,6.87
2019-02-07T02:04:30.214Z,4.83
2019-02-07T02:06:57.815Z,6.20
2019-02-07T02:09:25.429Z,5.40
2019-02-07T02:11:54.941Z,6.27
2019-02-07T02:14:25.280Z,5.10
2019-02-07T02:16:59.655Z,5.30
2019-02-07T02:19:27.331Z,5.40
2019-02-07T02:21:55.074Z,5.27
2019-02-07T02:24:22.717Z,4.93
2019-02-07T02:27:02.144Z,5.27
2019-02-07T02:29:29.784Z,5.73
2019-02-07T02:31:57.435Z,6.80
2019-02-07T02:34:27.832Z,7.13
2019-02-07T02:36:55.507Z,5.60
2019-02-07T02:39:23.317Z,6.20
2019-02-07T02:41:51.067Z,5.40
2019-02-07T02:44:21.704Z,5.30
2019-02-07T02:47:13.931Z,5.53
2019-02-07T02:49:43.946Z,5.33
2019-02-07T02:52:11.550Z,5.20
2019-02-07T02:54:43.238Z,4.77
2019-02-07T02:57:35.471Z,6.40
2019-02-07T03:00:08.918Z,5.17
2019-02-07T03:02:46.988Z,4.73
2019-02-07T03:05:33.213Z,4.63
2019-02-07T03:08:47.804Z,4.87
2019-02-07T03:11:37.647Z,4.30
2019-02-07T03:14:30.995Z,4.77
2019-02-07T03:17:28.440Z,3.53
2019-02-07T03:20:26.163Z,3.53
2019-02-07T03:23:16.709Z,4.00
2019-02-07T03:26:03.841Z,3.20
2019-02-07T03:28:55.240Z,3.07
2019-02-07T03:31:54.353Z,3.90
2019-02-07T03:34:39.908Z,3.57
2019-02-07T03:37:59.436Z,3.10
2019-02-07T03:40:52.445Z,3.00
2019-02-07T03:43:40.880Z,3.20
2019-02-07T03:46:52.047Z,3.00
2019-02-07T03:49:38.077Z,2.70
2019-02-07T03:52:28.233Z,2.70
2019-02-07T03:55:38.422Z,2.77
2019-02-07T03:58:54.624Z,2.90
2019-02-07T04:01:49.489Z,3.87
2019-02-07T04:04:35.969Z,3.60
2019-02-07T04:07:23.715Z,2.60
2019-02-07T04:10:10.782Z,2.80
2019-02-07T04:12:50.202Z,2.90
2019-02-07T04:15:37.338Z,2.80
2019-02-07T04:18:29.105Z,2.97
2019-02-07T04:21:16.566Z,2.73
2019-02-07T04:24:02.338Z,3.03
2019-02-07T04:27:01.034Z,2.87
2019-02-07T04:29:37.280Z,2.90
2019-02-07T04:32:39.307Z,3.40
2019-02-07T04:35:25.057Z,2.50
2019-02-07T04:38:10.891Z,3.40
2019-02-07T04:40:56.248Z,3.37
2019-02-07T04:43:35.181Z,3.20
2019-02-07T04:46:27.391Z,4.90
2019-02-07T04:49:01.704Z,3.33
2019-02-07T04:51:48.776Z,3.20
2019-02-07T04:54:45.705Z,3.80
2019-02-07T04:57:38.720Z,3.47
2019-02-07T05:00:35.271Z,3.30
2019-02-07T05:03:22.562Z,3.10
2019-02-07T05:06:09.631Z,3.13
2019-02-07T05:08:55.390Z,3.27
2019-02-07T05:11:41.620Z,3.73
2019-02-07T05:14:43.441Z,3.30
2019-02-07T05:17:54.317Z,3.30
2019-02-07T05:20:39.715Z,3.57
2019-02-07T05:23:26.780Z,3.30
2019-02-07T05:26:12.586Z,3.63
2019-02-07T05:29:11.091Z,4.07
2019-02-07T05:31:57.064Z,3.50
2019-02-07T05:34:44.479Z,3.73
2019-02-07T05:37:55.736Z,4.60
2019-02-07T05:40:52.058Z,3.70
2019-02-07T05:43:37.836Z,3.57
2019-02-07T05:46:50.495Z,4.37
2019-02-07T05:49:27.314Z,5.07
2019-02-07T05:52:19.112Z,4.20
2019-02-07T05:55:06.239Z,3.57
2019-02-07T06:01:21.149Z,4.17
2019-02-07T06:04:03.694Z,5.03
2019-02-07T06:10:36.158Z,5.40
2019-02-07T06:13:21.938Z,4.93
2019-02-07T06:16:12.097Z,4.53
2019-02-07T06:19:06.478Z,6.30
2019-02-07T06:21:56.682Z,3.50
2019-02-07T06:25:07.440Z,7.53
2019-02-07T06:27:55.568Z,6.87
2019-02-07T06:30:35.729Z,9.50
2019-02-07T06:33:25.968Z,10.17
2019-02-07T06:36:08.287Z,14.03
2019-02-07T06:39:00.426Z,16.00
2019-02-07T06:42:06.186Z,18.17
2019-02-07T06:45:11.792Z,18.70
2019-02-07T06:48:34.955Z,16.20
2019-02-07T06:51:21.113Z,21.77
2019-02-07T06:54:14.184Z,18.63
2019-02-07T06:57:20.686Z,19.43
2019-02-07T07:00:08.789Z,17.57
2019-02-07T07:03:24.875Z,18.33
2019-02-07T07:06:23.948Z,17.13
2019-02-07T07:09:09.180Z,21.13
2019-02-07T07:11:58.159Z,21.03
2019-02-07T07:14:43.746Z,24.43
2019-02-07T07:17:39.321Z,23.27
2019-02-07T07:20:33.865Z,27.90
2019-02-07T07:23:21.006Z,24.63
2019-02-07T07:26:00.102Z,16.03
2019-02-07T07:29:08.973Z,16.77
2019-02-07T07:31:58.708Z,16.60
2019-02-07T07:34:58.195Z,19.13
2019-02-07T07:37:48.031Z,21.97
2019-02-07T07:40:37.260Z,19.50
2019-02-07T07:43:23.102Z,18.60
2019-02-07T07:46:28.081Z,26.40
2019-02-07T07:49:13.612Z,21.43
2019-02-07T07:52:00.735Z,21.57
2019-02-07T07:55:02.565Z,22.73
2019-02-07T07:57:58.675Z,22.73
2019-02-07T08:00:36.233Z,24.07
2019-02-07T08:03:16.030Z,22.63
2019-02-07T08:06:01.456Z,19.87
2019-02-07T08:09:30.774Z,21.43
2019-02-07T08:12:17.936Z,20.97
2019-02-07T08:15:20.081Z,20.77
2019-02-07T08:18:12.903Z,24.53
2019-02-07T08:20:56.384Z,24.27
2019-02-07T08:23:40.689Z,21.27
2019-02-07T08:26:21.526Z,21.30
2019-02-07T08:29:02.904Z,23.97
2019-02-07T08:31:50.502Z,22.77
2019-02-07T08:34:50.811Z,22.97
2019-02-07T08:37:52.750Z,29.80
2019-02-07T08:40:34.118Z,25.87
2019-02-07T08:43:15.042Z,25.90
2019-02-07T08:46:03.675Z,20.00
2019-02-07T08:49:06.963Z,25.33
2019-02-07T08:52:02.836Z,22.33
2019-02-07T08:54:48.807Z,20.60
2019-02-07T08:57:49.931Z,23.10
2019-02-07T09:00:44.663Z,27.27
2019-02-07T09:03:47.356Z,23.77
2019-02-07T09:06:33.134Z,18.50
2019-02-07T09:09:19.098Z,29.20
2019-02-07T09:12:04.995Z,25.43
2019-02-07T09:14:42.987Z,21.00
2019-02-07T09:17:20.081Z,20.77
2019-02-07T09:20:07.397Z,25.30
2019-02-07T09:22:59.651Z,19.10
2019-02-07T09:25:49.845Z,20.03
2019-02-07T09:29:01.360Z,25.83
2019-02-07T09:31:51.523Z,17.33
2019-02-07T09:34:37.761Z,21.77
2019-02-07T09:37:19.287Z,18.43
2019-02-07T09:40:05.061Z,25.63
2019-02-07T09:43:01.171Z,15.90
2019-02-07T09:45:58.269Z,19.37
2019-02-07T09:49:03.512Z,20.13
2019-02-07T09:52:05.573Z,18.40
2019-02-07T09:54:55.263Z,14.03
2019-02-07T09:58:10.813Z,16.73
2019-02-07T10:01:00.933Z,20.73
2019-02-07T10:03:50.994Z,18.47
2019-02-07T10:06:41.730Z,16.60
2019-02-07T10:09:27.799Z,19.97
2019-02-07T10:12:21.155Z,22.30
2019-02-07T10:15:14.468Z,15.00
2019-02-07T10:18:16.240Z,20.13
2019-02-07T10:21:21.463Z,15.97
2019-02-07T10:23:55.772Z,15.70
2019-02-07T10:26:41.847Z,20.00
2019-02-07T10:29:36.259Z,15.97
2019-02-07T10:32:26.167Z,15.33
2019-02-07T10:35:00.361Z,19.70
2019-02-07T10:37:40.222Z,17.03
2019-02-07T10:40:28.961Z,15.87
2019-02-07T10:43:14.402Z,16.37
2019-02-07T10:46:04.262Z,17.23
2019-02-07T10:48:44.743Z,13.60
2019-02-07T10:51:24.754Z,16.77
2019-02-07T10:54:10.741Z,17.43
2019-02-07T10:56:59.976Z,13.40
2019-02-07T10:59:45.948Z,16.63
2019-02-07T11:02:48.169Z,13.63
2019-02-07T11:05:38.154Z,15.23
2019-02-07T11:08:43.458Z,16.17
2019-02-07T11:11:36.732Z,16.20
2019-02-07T11:14:36.258Z,12.37
2019-02-07T11:17:15.170Z,19.07
2019-02-07T11:19:53.086Z,15.97
2019-02-07T11:22:55.235Z,13.67
2019-02-07T11:25:41.272Z,12.20
2019-02-07T11:28:33.874Z,16.77
2019-02-07T11:31:26.725Z,14.27
2019-02-07T11:34:12.360Z,12.10
2019-02-07T11:37:03.269Z,16.13
2019-02-07T11:39:50.246Z,14.10
2019-02-07T11:42:52.492Z,11.50
2019-02-07T11:45:43.954Z,16.30
2019-02-07T11:48:30.576Z,14.70
2019-02-07T11:51:08.508Z,12.00
2019-02-07T11:54:00.516Z,18.10
2019-02-07T11:56:50.797Z,11.63
2019-02-07T11:59:41.223Z,13.80
2019-02-07T12:02:20.131Z,13.03
2019-02-07T12:05:07.273Z,10.80
2019-02-07T12:08:12.977Z,10.17
2019-02-07T12:11:00.030Z,14.00
2019-02-07T12:13:52.287Z,12.13
2019-02-07T12:16:46.787Z,9.53
2019-02-07T12:19:30.704Z,13.80
2019-02-07T12:22:10.315Z,12.17
2019-02-07T12:25:09.696Z,8.50
2019-02-07T12:27:56.861Z,8.70
2019-02-07T12:30:42.795Z,12.07
2019-02-07T12:33:18.388Z,6.47
2019-02-07T12:36:23.567Z,8.47
2019-02-07T12:39:16.244Z,11.00
2019-02-07T12:42:01.879Z,8.57
2019-02-07T12:44:46.303Z,8.40
2019-02-07T12:48:02.961Z,8.77
2019-02-07T12:50:48.665Z,7.90
2019-02-07T12:53:37.414Z,10.73
2019-02-07T12:56:25.180Z,8.50
2019-02-07T12:59:24.456Z,7.37
2019-02-07T13:02:17.621Z,10.37
2019-02-07T13:05:08.085Z,7.47
2019-02-07T13:08:12.165Z,6.90
2019-02-07T13:11:03.310Z,7.67
2019-02-07T13:13:48.094Z,9.60
2019-02-07T13:16:34.195Z,7.17
2019-02-07T13:19:16.599Z,10.93
2019-02-07T13:22:18.508Z,9.63
2019-02-07T13:25:08.320Z,6.77
2019-02-07T13:28:05.493Z,6.77
2019-02-07T13:31:22.582Z,7.17
2019-02-07T13:34:11.649Z,8.23
2019-02-07T13:37:27.229Z,7.47
2019-02-07T13:40:16.393Z,7.87
2019-02-07T13:43:08.465Z,10.83
2019-02-07T13:46:00.968Z,9.90
2019-02-07T13:48:48.256Z,8.67
2019-02-07T13:51:41.850Z,8.70
2019-02-07T13:54:33.145Z,6.87
2019-02-07T13:57:26.989Z,7.17
2019-02-07T14:00:29.084Z,5.93
2019-02-07T14:03:48.746Z,10.43
2019-02-07T14:14:16.102Z,9.90
2019-02-07T14:17:33.344Z,9.27
2019-02-07T14:20:51.752Z,8.90
2019-02-07T14:23:56.074Z,9.27
2019-02-07T14:30:33.531Z,7.80
2019-02-07T14:33:30.139Z,7.40
2019-02-07T14:36:30.800Z,5.90
2019-02-07T14:39:44.635Z,6.83
2019-02-07T14:42:55.346Z,7.97
2019-02-07T14:45:49.782Z,6.63
2019-02-07T14:48:34.531Z,6.70
2019-02-07T14:51:18.004Z,7.13
2019-02-07T14:57:23.438Z,6.63
2019-02-07T15:00:20.563Z,8.07
2019-02-07T15:03:34.327Z,13.87
2019-02-07T15:06:30.269Z,9.37
2019-02-07T15:09:24.022Z,14.03
2019-02-07T15:12:14.760Z,8.73
2019-02-07T15:15:32.304Z,9.50
2019-02-07T15:21:50.383Z,8.17
2019-02-07T15:25:18.824Z,8.83
2019-02-07T15:32:12.616Z,12.77
2019-02-07T15:34:53.828Z,10.70
2019-02-07T15:38:04.277Z,9.70
2019-02-07T15:41:17.012Z,10.07
2019-02-07T15:47:40.282Z,8.87
2019-02-07T15:50:49.811Z,8.43
2019-02-07T15:53:29.541Z,9.47
2019-02-07T15:56:23.699Z,10.30
2019-02-07T15:59:25.605Z,8.97
2019-02-07T16:02:38.962Z,7.30
2019-02-07T16:05:48.938Z,8.87
2019-02-07T16:08:54.035Z,8.10
2019-02-07T16:11:57.597Z,9.87
2019-02-07T16:15:16.909Z,6.67
2019-02-07T16:53:47.827Z,9.80
2019-02-07T17:18:45.443Z,12.13
2019-02-07T17:25:39.187Z,10.10
2019-02-07T17:31:56.116Z,10.27
2019-02-07T17:35:03.964Z,9.43
2019-02-07T17:37:14.666Z,9.03
2019-02-07T17:40:05.644Z,11.93
2019-02-07T17:45:42.501Z,6.50
2019-02-07T17:48:46.758Z,8.13
2019-02-07T17:51:37.758Z,8.77
2019-02-07T17:54:29.699Z,8.07
2019-02-07T17:57:19.060Z,7.37
2019-02-07T18:00:13.775Z,8.77
2019-02-07T18:03:15.642Z,10.87
2019-02-07T18:05:43.983Z,14.17
2019-02-07T18:08:19.832Z,8.23
2019-02-07T18:10:54.539Z,8.57
2019-02-07T18:14:15.140Z,9.10
2019-02-07T18:17:01.936Z,7.57
2019-02-07T18:19:36.943Z,6.93
2019-02-07T18:22:08.484Z,9.90
2019-02-07T18:24:36.674Z,4.47
2019-02-07T18:27:04.425Z,8.43
2019-02-07T18:29:32.219Z,7.63
2019-02-07T18:32:00.026Z,7.20
2019-02-07T18:34:34.489Z,8.67
2019-02-07T18:37:04.610Z,11.67
2019-02-07T18:39:32.737Z,7.80
2019-02-07T18:42:17.028Z,5.73
2019-02-07T18:44:44.684Z,8.77
2019-02-07T18:47:16.512Z,8.87
2019-02-07T18:49:46.226Z,7.90
2019-02-07T18:52:38.951Z,9.20
2019-02-07T18:55:09.492Z,9.03
2019-02-07T18:58:14.668Z,7.13
2019-02-07T19:00:44.960Z,5.13
2019-02-07T19:03:51.660Z,10.50
2019-02-07T19:06:40.813Z,7.63
2019-02-07T19:09:20.016Z,8.03
2019-02-07T19:11:59.772Z,7.13
2019-02-07T19:15:29.148Z,8.63
2019-02-07T19:18:31.788Z,10.27
2019-02-07T19:21:06.216Z,8.43
2019-02-07T19:23:35.338Z,5.53
2019-02-07T19:26:16.728Z,11.43
2019-02-07T19:28:50.292Z,9.37
2019-02-07T19:31:18.148Z,8.07
2019-02-07T19:33:46.059Z,5.73
2019-02-07T19:36:23.049Z,3.93
2019-02-07T19:38:50.793Z,5.83
2019-02-07T19:41:18.608Z,8.13
2019-02-07T19:43:48.730Z,14.47
2019-02-07T19:46:16.373Z,10.70
2019-02-07T19:48:48.194Z,8.80
2019-02-07T19:51:15.953Z,6.93
2019-02-07T19:54:50.015Z,8.93
2019-02-07T19:57:27.113Z,5.97
2019-02-07T20:00:05.680Z,8.10
2019-02-07T20:02:34.154Z,7.37
2019-02-07T20:05:01.923Z,8.93
2019-02-07T20:07:52.527Z,7.70
2019-02-07T20:10:21.750Z,5.47
2019-02-07T20:12:50.168Z,8.70
2019-02-07T20:15:24.281Z,5.80
2019-02-07T20:18:04.849Z,8.17
2019-02-07T20:20:41.725Z,6.57
2019-02-07T20:23:08.189Z,7.90
2019-02-07T20:25:44.359Z,6.57
2019-02-07T20:28:14.202Z,6.60
2019-02-07T20:30:43.271Z,5.73
2019-02-07T20:33:11.877Z,8.67
2019-02-07T20:35:45.914Z,9.93
2019-02-07T20:38:21.580Z,7.27
2019-02-07T20:40:49.333Z,8.73
2019-02-07T20:43:17.139Z,7.60
2019-02-07T20:45:44.918Z,6.73
2019-02-07T20:48:42.234Z,7.20
2019-02-07T20:51:13.681Z,7.20
2019-02-07T20:53:51.562Z,6.53
2019-02-07T20:56:26.467Z,7.07
2019-02-07T20:58:57.005Z,6.37
2019-02-07T21:01:25.189Z,8.10
2019-02-07T21:03:53.322Z,8.03
2019-02-07T21:06:24.056Z,6.90
2019-02-07T21:08:56.019Z,6.93
2019-02-07T21:11:26.293Z,9.23
2019-02-07T21:13:55.414Z,5.70
2019-02-07T21:16:23.069Z,4.67
2019-02-07T21:18:50.976Z,5.40
2019-02-07T21:21:24.177Z,7.17
2019-02-07T21:24:01.059Z,5.90
2019-02-07T21:26:54.096Z,5.40
2019-02-07T21:29:21.860Z,5.83
2019-02-07T21:35:42.304Z,7.03
2019-02-07T21:38:21.919Z,8.37
2019-02-07T21:40:50.007Z,5.67
2019-02-07T21:43:19.890Z,7.53
2019-02-07T21:45:47.520Z,10.17
2019-02-07T21:48:18.556Z,6.30
2019-02-07T21:50:46.592Z,8.77
2019-02-07T21:53:14.547Z,5.47
2019-02-07T21:55:43.756Z,7.63
2019-02-07T21:58:26.952Z,9.37
2019-02-07T22:00:54.666Z,6.40
2019-02-07T22:03:22.343Z,7.73
2019-02-07T22:05:50.000Z,7.73
2019-02-07T22:08:39.019Z,6.43
2019-02-07T22:11:09.556Z,5.93
2019-02-07T22:13:37.120Z,10.20
2019-02-07T22:16:04.870Z,7.53
2019-02-07T22:18:42.150Z,6.07
2019-02-07T22:21:09.836Z,5.90
2019-02-07T22:23:37.563Z,5.80
2019-02-07T22:26:05.543Z,7.20
2019-02-07T22:28:33.414Z,7.73
2019-02-07T22:31:01.068Z,9.40
2019-02-07T22:33:28.697Z,6.33
2019-02-07T22:35:56.361Z,6.13
2019-02-07T22:38:28.391Z,5.37
2019-02-07T22:40:55.926Z,7.23
2019-02-07T22:43:23.547Z,7.23
2019-02-07T22:45:51.186Z,7.27
2019-02-07T22:48:18.837Z,5.97
2019-02-07T22:50:46.493Z,4.87
2019-02-07T22:53:14.083Z,4.37
2019-02-07T22:55:41.707Z,5.40
2019-02-07T22:58:27.712Z,4.63
2019-02-07T23:01:27.541Z,9.43
2019-02-07T23:03:59.957Z,5.80
2019-02-07T23:06:30.542Z,6.60
2019-02-07T23:09:00.190Z,4.60
2019-02-07T23:11:27.858Z,7.43
2019-02-07T23:13:55.503Z,8.53
2019-02-07T23:16:23.435Z,6.83
2019-02-07T23:18:51.236Z,6.67
2019-02-07T23:21:18.990Z,6.57
2019-02-07T23:23:46.583Z,6.47
2019-02-07T23:26:14.359Z,6.10
2019-02-07T23:28:42.032Z,6.60
2019-02-07T23:31:10.385Z,5.20
2019-02-07T23:33:38.072Z,5.50
2019-02-07T23:36:07.542Z,4.70
2019-02-07T23:38:58.633Z,5.23
2019-02-07T23:41:26.205Z,7.60
2019-02-07T23:43:53.775Z,7.77
2019-02-07T23:46:21.802Z,5.77
2019-02-07T23:48:49.364Z,9.10
2019-02-07T23:51:17.046Z,7.67
2019-02-07T23:53:44.723Z,5.57
2019-02-07T23:56:12.317Z,4.40
2019-02-07T23:58:49.330Z,4.47
